Time;durP1;ratioP1;P1;durP2;ratioP2;P2;SDS_P1;SDS_P2;PMS_P1;PMS_P2;Temp;Humidity;BMP_temperature;BMP_pressure;BME280_temperature;BME280_humidity;BME280_pressure;Samples;Min_cycle;Max_cycle;Signal;HPM_P1;HPM_P2
2021/04/11 00:01:42;;;;;;;9.53;4.77;;;5.30;98.30;;;;;;5118156;23;20458;-81
2021/04/11 00:03:44;;;;;;;9.00;5.53;;;5.30;98.30;;;;;;5119207;23;20458;-82
2021/04/11 00:05:47;;;;;;;10.57;5.47;;;5.30;98.30;;;;;;5119202;23;20565;-83
2021/04/11 00:07:49;;;;;;;10.63;5.90;;;5.40;98.30;;;;;;5119108;23;20479;-83
2021/04/11 00:09:52;;;;;;;11.30;5.53;;;5.20;98.30;;;;;;5118871;23;20492;-83
2021/04/11 00:11:54;;;;;;;7.17;5.47;;;5.20;98.30;;;;;;5126314;23;20446;-82
2021/04/11 00:13:56;;;;;;;7.97;4.97;;;5.30;98.30;;;;;;5116818;23;20964;-83
2021/04/11 00:15:58;;;;;;;7.27;6.10;;;5.20;98.30;;;;;;5117433;23;20453;-82
2021/04/11 00:18:00;;;;;;;7.33;5.50;;;5.10;98.30;;;;;;5117500;23;20818;-82
2021/04/11 00:20:03;;;;;;;14.10;5.90;;;5.10;98.30;;;;;;5124475;23;20971;-82
2021/04/11 00:22:06;;;;;;;12.23;5.30;;;5.20;98.30;;;;;;5117067;23;20464;-83
2021/04/11 00:24:08;;;;;;;8.27;5.03;;;5.20;98.30;;;;;;5117709;23;20462;-81
2021/04/11 00:26:11;;;;;;;7.17;5.60;;;5.10;98.30;;;;;;5126341;23;20443;-81
2021/04/11 00:28:14;;;;;;;12.57;5.93;;;5.10;98.30;;;;;;5118371;23;20458;-82
2021/04/11 00:30:18;;;;;;;12.73;6.43;;;5.20;98.30;;;;;;5117592;23;21196;-82
2021/04/11 00:32:19;;;;;;;9.37;5.63;;;5.10;98.30;;;;;;5117756;23;20217;-82
2021/04/11 00:34:21;;;;;;;10.63;5.60;;;5.00;98.30;;;;;;5117005;23;20482;-82
2021/04/11 00:36:23;;;;;;;8.40;6.40;;;5.00;98.30;;;;;;5117408;23;20549;-82
2021/04/11 00:38:26;;;;;;;12.77;6.90;;;5.00;98.30;;;;;;5117296;23;20464;-82
2021/04/11 00:40:30;;;;;;;11.30;7.17;;;5.10;98.30;;;;;;5118999;23;20449;-82
2021/04/11 00:42:36;;;;;;;19.03;9.20;;;5.20;98.30;;;;;;5119625;23;20458;-82
2021/04/11 00:44:38;;;;;;;13.77;7.30;;;5.10;98.30;;;;;;5118770;23;20466;-82
2021/04/11 00:46:44;;;;;;;11.47;8.07;;;5.10;98.30;;;;;;5119730;23;21189;-83
2021/04/11 00:48:46;;;;;;;17.63;8.57;;;5.30;98.30;;;;;;5119808;23;20935;-82
2021/04/11 00:50:53;;;;;;;13.60;9.80;;;5.40;98.30;;;;;;5119999;23;20464;-82
2021/04/11 00:52:56;;;;;;;13.23;8.83;;;5.30;98.30;;;;;;5119704;23;20478;-82
2021/04/11 00:54:58;;;;;;;14.73;9.10;;;5.30;98.30;;;;;;5119735;23;20455;-82
2021/04/11 00:57:00;;;;;;;18.00;10.43;;;5.40;98.30;;;;;;5128163;23;20533;-82
2021/04/11 00:59:03;;;;;;;13.23;9.93;;;5.40;98.30;;;;;;5119899;23;20453;-82
2021/04/11 01:01:06;;;;;;;18.80;10.90;;;5.50;98.30;;;;;;5120844;23;20450;-82
2021/04/11 01:03:09;;;;;;;15.80;10.10;;;5.40;98.30;;;;;;5119928;23;20458;-82
2021/04/11 01:05:17;;;;;;;17.50;10.33;;;5.40;98.30;;;;;;5118218;23;20523;-82
2021/04/11 01:07:21;;;;;;;16.97;11.90;;;5.50;98.30;;;;;;5118460;23;20454;-82
2021/04/11 01:09:26;;;;;;;16.10;9.80;;;5.50;98.30;;;;;;5118259;23;20458;-83
2021/04/11 01:11:30;;;;;;;17.60;9.93;;;5.50;98.30;;;;;;5127777;23;20455;-82
2021/04/11 01:13:34;;;;;;;18.57;11.23;;;5.60;98.30;;;;;;5119533;23;20467;-82
2021/04/11 01:15:38;;;;;;;21.90;12.17;;;5.50;98.30;;;;;;5119999;23;20458;-82
2021/04/11 01:17:40;;;;;;;18.80;11.93;;;5.50;98.30;;;;;;5128118;23;20477;-81
2021/04/11 01:19:42;;;;;;;21.67;11.87;;;5.60;98.30;;;;;;5119459;23;20456;-82
2021/04/11 01:21:54;;;;;;;19.07;12.70;;;5.50;98.30;;;;;;5126670;23;20450;-82
2021/04/11 01:24:05;;;;;;;20.57;13.03;;;5.50;98.30;;;;;;5119968;23;20540;-81
2021/04/11 01:26:08;;;;;;;20.50;13.30;;;5.60;98.30;;;;;;5119753;23;20503;-82
2021/04/11 01:28:16;;;;;;;19.33;14.00;;;5.60;98.30;;;;;;5119100;23;20949;-82
2021/04/11 01:30:23;;;;;;;24.23;15.27;;;5.60;98.30;;;;;;5118709;23;20469;-82
2021/04/11 01:32:26;;;;;;;19.40;13.17;;;5.60;98.30;;;;;;5127638;23;20453;-82
2021/04/11 01:34:28;;;;;;;23.20;13.60;;;5.60;98.30;;;;;;5118614;23;20455;-82
2021/04/11 01:36:34;;;;;;;20.07;11.83;;;5.70;98.30;;;;;;5119722;23;20458;-81
2021/04/11 01:38:38;;;;;;;23.67;14.10;;;5.70;98.30;;;;;;5119865;23;20455;-82
2021/04/11 01:40:48;;;;;;;25.50;14.20;;;5.70;98.30;;;;;;5119005;23;21055;-82
2021/04/11 01:42:51;;;;;;;23.70;13.60;;;5.80;98.30;;;;;;5119448;23;20469;-82
2021/04/11 01:44:53;;;;;;;23.40;15.20;;;5.90;98.30;;;;;;5119009;23;20450;-81
2021/04/11 01:46:55;;;;;;;25.10;16.87;;;5.80;98.30;;;;;;5119413;23;20763;-81
2021/04/11 01:48:58;;;;;;;24.70;16.30;;;5.80;98.30;;;;;;5119500;23;20463;-82
2021/04/11 01:51:01;;;;;;;21.50;16.17;;;5.80;98.30;;;;;;5119932;23;20459;-83
2021/04/11 01:53:05;;;;;;;28.37;16.60;;;5.80;98.30;;;;;;5119817;23;20451;-82
2021/04/11 01:55:11;;;;;;;26.30;17.03;;;5.90;98.30;;;;;;5129113;23;20459;-82
2021/04/11 01:57:19;;;;;;;24.97;15.30;;;5.80;98.30;;;;;;5119403;23;20449;-82
2021/04/11 01:59:26;;;;;;;24.93;16.40;;;5.80;98.30;;;;;;5119280;23;20452;-82
2021/04/11 02:01:30;;;;;;;27.17;18.87;;;5.90;98.30;;;;;;5119072;23;20464;-82
2021/04/11 02:03:33;;;;;;;29.47;15.93;;;6.00;98.30;;;;;;5119305;23;21221;-81
2021/04/11 02:05:39;;;;;;;27.40;16.83;;;6.20;98.30;;;;;;5119123;23;20465;-82
2021/04/11 02:07:41;;;;;;;24.10;14.13;;;6.00;98.30;;;;;;5119110;23;20473;-82
2021/04/11 02:09:46;;;;;;;28.47;17.00;;;6.00;98.30;;;;;;5127456;23;20457;-82
2021/04/11 02:11:49;;;;;;;27.00;17.17;;;6.00;98.30;;;;;;5127231;23;20486;-82
2021/04/11 02:13:51;;;;;;;26.23;16.67;;;6.10;98.30;;;;;;5119073;23;20448;-83
2021/04/11 02:15:57;;;;;;;29.93;15.60;;;6.20;98.30;;;;;;5119661;23;20468;-82
2021/04/11 02:17:59;;;;;;;25.10;15.47;;;6.20;98.30;;;;;;5119846;23;20813;-81
2021/04/11 02:20:01;;;;;;;30.47;15.70;;;6.20;98.30;;;;;;5119438;23;20781;-83
2021/04/11 02:22:09;;;;;;;28.90;15.40;;;6.30;98.30;;;;;;5119447;23;20460;-82
2021/04/11 02:24:12;;;;;;;27.00;16.50;;;6.20;98.30;;;;;;5118581;23;20459;-82
2021/04/11 02:26:14;;;;;;;26.00;16.03;;;6.20;98.30;;;;;;5119258;23;20459;-82
2021/04/11 02:28:18;;;;;;;29.23;18.07;;;6.10;98.30;;;;;;5129339;23;20452;-82
2021/04/11 02:30:23;;;;;;;29.20;17.27;;;6.20;98.30;;;;;;5122098;23;20453;-82
2021/04/11 02:32:26;;;;;;;26.17;16.23;;;6.30;98.30;;;;;;5119566;23;20459;-82
2021/04/11 02:34:31;;;;;;;28.63;15.90;;;6.30;98.30;;;;;;5117889;23;20457;-83
2021/04/11 02:36:37;;;;;;;26.33;16.60;;;6.20;98.30;;;;;;5127027;23;20503;-83
2021/04/11 02:38:39;;;;;;;26.60;14.73;;;6.30;98.30;;;;;;5117785;23;20933;-83
2021/04/11 02:40:44;;;;;;;25.27;15.30;;;6.40;98.30;;;;;;5116727;23;20462;-83
2021/04/11 02:42:47;;;;;;;23.83;15.40;;;6.30;98.30;;;;;;5116862;23;20498;-82
2021/04/11 02:44:51;;;;;;;29.73;16.50;;;6.40;98.30;;;;;;5117691;23;20480;-82
2021/04/11 02:46:53;;;;;;;25.87;16.60;;;6.40;98.30;;;;;;5118402;23;20880;-83
2021/04/11 02:48:56;;;;;;;29.37;19.53;;;6.40;98.30;;;;;;5117822;23;20465;-82
2021/04/11 02:50:58;;;;;;;28.40;16.00;;;6.40;98.30;;;;;;5118683;23;20461;-82
2021/04/11 02:53:04;;;;;;;26.27;15.67;;;6.40;98.30;;;;;;5117964;23;20454;-82
2021/04/11 02:55:10;;;;;;;26.50;16.00;;;6.40;98.30;;;;;;5114745;23;20472;-79
2021/04/11 02:57:12;;;;;;;25.77;16.33;;;6.50;98.30;;;;;;5114971;23;20499;-78
2021/04/11 02:59:15;;;;;;;24.50;18.27;;;6.50;98.30;;;;;;5114132;23;20457;-78
2021/04/11 03:01:20;;;;;;;28.40;19.00;;;6.50;98.30;;;;;;5123036;23;20452;-78
2021/04/11 03:03:22;;;;;;;27.23;17.20;;;6.40;98.30;;;;;;5114324;23;20456;-79
2021/04/11 03:05:26;;;;;;;28.67;17.27;;;6.40;98.30;;;;;;5122530;23;20465;-78
2021/04/11 03:07:42;;;;;;;29.40;15.70;;;6.40;98.30;;;;;;5114722;23;20517;-78
2021/04/11 03:09:48;;;;;;;25.10;15.77;;;6.50;98.30;;;;;;5122452;23;20456;-79
2021/04/11 03:11:52;;;;;;;30.00;16.97;;;6.50;98.30;;;;;;5114659;23;20462;-79
2021/04/11 03:13:55;;;;;;;25.60;16.60;;;6.50;98.30;;;;;;5114706;23;20485;-78
2021/04/11 03:15:57;;;;;;;22.20;14.80;;;6.50;98.30;;;;;;5114462;23;20464;-79
2021/04/11 03:18:00;;;;;;;28.67;17.17;;;6.50;98.30;;;;;;5112516;23;20456;-79
2021/04/11 03:20:07;;;;;;;27.30;16.63;;;6.60;98.30;;;;;;5114321;23;20463;-78
2021/04/11 03:22:11;;;;;;;26.07;16.50;;;6.60;98.30;;;;;;5113732;23;20504;-79
2021/04/11 03:24:13;;;;;;;27.13;16.87;;;6.50;98.30;;;;;;5113013;23;20472;-79
2021/04/11 03:26:20;;;;;;;28.47;17.80;;;6.50;98.30;;;;;;5114317;23;20519;-79
2021/04/11 03:28:26;;;;;;;29.27;16.73;;;6.60;98.30;;;;;;5114414;23;20457;-79
2021/04/11 03:30:32;;;;;;;28.07;17.10;;;6.60;98.30;;;;;;5113928;23;20987;-79
2021/04/11 03:32:37;;;;;;;26.00;16.50;;;6.60;98.30;;;;;;5114518;23;20461;-79
2021/04/11 03:34:41;;;;;;;28.70;19.50;;;6.70;98.30;;;;;;5113924;23;20838;-78
2021/04/11 03:36:45;;;;;;;24.93;16.73;;;6.60;98.30;;;;;;5114374;23;20461;-78
2021/04/11 03:38:48;;;;;;;32.03;18.77;;;6.70;98.30;;;;;;5113897;23;20479;-80
2021/04/11 03:40:52;;;;;;;30.20;18.57;;;6.70;98.30;;;;;;5114387;23;20465;-78
2021/04/11 03:43:00;;;;;;;30.17;18.00;;;6.70;98.30;;;;;;5114142;23;20456;-79
2021/04/11 03:45:02;;;;;;;32.70;17.70;;;6.70;98.30;;;;;;5113999;23;20487;-79
2021/04/11 03:47:09;;;;;;;33.70;20.30;;;6.80;98.30;;;;;;5114338;23;20809;-79
2021/04/11 03:49:18;;;;;;;31.53;17.53;;;6.70;98.30;;;;;;5113871;23;20453;-79
2021/04/11 03:51:23;;;;;;;34.53;18.23;;;6.70;98.30;;;;;;5117326;23;20460;-79
2021/04/11 03:53:31;;;;;;;30.13;17.63;;;6.80;98.30;;;;;;5114709;23;20438;-80
2021/04/11 03:55:37;;;;;;;32.73;19.17;;;6.70;98.30;;;;;;5114238;23;20451;-79
2021/04/11 03:57:47;;;;;;;26.90;16.87;;;6.70;98.30;;;;;;5114165;23;20515;-79
2021/04/11 03:59:55;;;;;;;34.30;20.50;;;6.90;98.30;;;;;;5113442;23;20511;-78
2021/04/11 04:02:00;;;;;;;31.20;19.20;;;6.80;98.30;;;;;;5122642;23;20453;-79
2021/04/11 04:04:06;;;;;;;28.43;17.57;;;6.80;98.30;;;;;;5114118;23;20458;-79
2021/04/11 04:06:14;;;;;;;28.23;18.03;;;6.90;98.30;;;;;;5114357;23;20478;-79
2021/04/11 04:08:16;;;;;;;31.27;19.30;;;6.90;98.30;;;;;;5122399;23;20431;-79
2021/04/11 04:10:21;;;;;;;31.90;19.90;;;6.90;98.30;;;;;;5113414;23;20464;-79
2021/04/11 04:12:30;;;;;;;34.33;21.80;;;6.90;98.30;;;;;;5114299;23;20968;-79
2021/04/11 04:14:45;;;;;;;29.93;19.97;;;6.90;98.30;;;;;;5114152;23;20445;-79
2021/04/11 04:16:56;;;;;;;32.10;19.63;;;6.80;98.30;;;;;;5114178;23;20459;-79
2021/04/11 04:19:11;;;;;;;32.93;19.40;;;6.90;98.30;;;;;;5113637;23;20480;-78
2021/04/11 04:21:34;;;;;;;33.77;19.80;;;6.90;98.30;;;;;;5114616;23;20457;-79
2021/04/11 04:23:49;;;;;;;32.00;19.40;;;6.90;98.30;;;;;;5114403;23;20458;-78
2021/04/11 04:26:03;;;;;;;31.10;19.00;;;7.00;98.30;;;;;;5114342;23;20439;-78
2021/04/11 04:28:17;;;;;;;33.10;19.70;;;7.10;98.30;;;;;;5114381;23;21309;-79
2021/04/11 04:30:22;;;;;;;34.83;23.87;;;7.00;98.30;;;;;;5113507;23;20428;-78
2021/04/11 04:32:32;;;;;;;34.90;23.30;;;7.10;98.30;;;;;;5114186;23;20511;-79
2021/04/11 04:34:41;;;;;;;32.60;20.50;;;7.10;98.30;;;;;;5121808;23;20431;-79
2021/04/11 04:36:47;;;;;;;36.07;23.33;;;7.10;98.30;;;;;;5113695;23;20460;-79
2021/04/11 04:38:56;;;;;;;32.97;20.07;;;7.10;98.30;;;;;;5113971;23;20454;-78
2021/04/11 04:41:11;;;;;;;37.60;22.13;;;7.10;98.30;;;;;;5114605;23;20428;-79
2021/04/11 04:43:23;;;;;;;41.10;22.47;;;7.10;98.30;;;;;;5114113;23;20453;-79
2021/04/11 04:45:33;;;;;;;38.60;19.80;;;7.10;98.30;;;;;;5113957;23;20519;-78
2021/04/11 04:47:46;;;;;;;35.73;21.10;;;7.10;98.30;;;;;;5115050;23;20457;-79
2021/04/11 04:49:56;;;;;;;35.03;21.37;;;7.00;98.30;;;;;;5115089;23;20457;-79
2021/04/11 04:52:03;;;;;;;34.80;21.00;;;7.00;98.30;;;;;;5115417;23;20460;-79
2021/04/11 04:54:14;;;;;;;35.87;21.30;;;7.10;98.30;;;;;;5116060;23;20445;-79
2021/04/11 04:56:24;;;;;;;40.70;23.00;;;7.20;98.30;;;;;;5117957;23;20453;-78
2021/04/11 04:58:31;;;;;;;39.57;24.37;;;7.20;98.30;;;;;;5119325;23;20787;-79
2021/04/11 05:00:36;;;;;;;40.70;23.93;;;7.30;98.30;;;;;;5115302;23;20435;-79
2021/04/11 05:02:43;;;;;;;38.43;22.40;;;7.30;98.30;;;;;;5115566;23;20548;-79
2021/04/11 05:04:51;;;;;;;42.70;25.57;;;7.30;98.30;;;;;;5115311;23;20436;-78
2021/04/11 05:06:58;;;;;;;38.80;22.90;;;7.30;98.30;;;;;;5123381;23;20455;-79
2021/04/11 05:09:04;;;;;;;39.47;22.97;;;7.30;98.30;;;;;;5115062;23;20775;-79
2021/04/11 05:11:14;;;;;;;37.80;24.17;;;7.30;98.30;;;;;;5115483;23;20432;-79
2021/04/11 05:13:20;;;;;;;41.20;25.07;;;7.30;98.30;;;;;;5115628;23;20490;-79
2021/04/11 05:15:26;;;;;;;38.37;23.20;;;7.30;98.30;;;;;;5115144;23;21144;-79
2021/04/11 05:17:33;;;;;;;36.93;24.10;;;7.30;98.30;;;;;;5114892;23;20453;-79
2021/04/11 05:19:38;;;;;;;40.03;22.17;;;7.30;98.30;;;;;;5114625;23;20478;-79
2021/04/11 05:21:44;;;;;;;44.07;25.97;;;7.20;98.30;;;;;;5115271;23;20941;-79
2021/04/11 05:23:51;;;;;;;38.20;23.70;;;7.30;98.30;;;;;;5114948;23;20432;-79
2021/04/11 05:26:00;;;;;;;44.33;25.70;;;7.30;98.30;;;;;;5115099;23;20468;-79
2021/04/11 05:28:07;;;;;;;39.90;24.97;;;7.30;98.30;;;;;;5123525;23;20453;-79
2021/04/11 05:30:13;;;;;;;40.47;23.70;;;7.40;98.30;;;;;;5114926;23;20425;-79
2021/04/11 05:32:16;;;;;;;42.00;25.97;;;7.50;98.30;;;;;;5115833;23;20435;-79
2021/04/11 05:34:21;;;;;;;39.23;24.90;;;7.50;98.30;;;;;;5115226;23;20468;-79
2021/04/11 05:36:45;;;;;;;39.50;25.73;;;7.50;98.30;;;;;;5123695;23;20450;-79
2021/04/11 05:38:57;;;;;;;39.70;24.50;;;7.50;98.30;;;;;;5115298;23;20824;-79
2021/04/11 05:41:07;;;;;;;41.47;26.40;;;7.50;98.30;;;;;;5115245;23;20464;-78
2021/04/11 05:43:13;;;;;;;38.90;25.30;;;7.50;98.30;;;;;;5115526;23;20728;-78
2021/04/11 05:45:21;;;;;;;48.23;27.03;;;7.50;98.30;;;;;;5114896;23;20453;-79
2021/04/11 05:47:33;;;;;;;38.90;26.17;;;7.50;98.30;;;;;;5114949;23;21243;-78
2021/04/11 05:49:43;;;;;;;42.07;25.50;;;7.50;98.30;;;;;;5122754;23;20771;-79
2021/04/11 05:51:53;;;;;;;43.60;25.57;;;7.50;98.30;;;;;;5123085;23;20428;-79
2021/04/11 05:54:01;;;;;;;42.90;28.10;;;7.50;98.30;;;;;;5114963;23;20483;-79
2021/04/11 05:56:09;;;;;;;42.73;27.30;;;7.50;98.30;;;;;;5123356;23;20450;-78
2021/04/11 05:58:14;;;;;;;42.43;26.60;;;7.60;98.30;;;;;;5114448;23;20434;-79
2021/04/11 06:00:22;;;;;;;40.60;26.33;;;7.60;98.30;;;;;;5114262;23;20453;-79
2021/04/11 06:02:37;;;;;;;43.97;26.97;;;7.60;98.30;;;;;;5115303;23;20459;-79
2021/04/11 06:04:48;;;;;;;43.13;27.83;;;7.70;98.30;;;;;;5114897;23;20781;-79
2021/04/11 06:06:57;;;;;;;42.37;27.10;;;7.70;98.30;;;;;;5115357;23;20432;-79
2021/04/11 06:09:04;;;;;;;44.93;27.70;;;7.70;98.30;;;;;;5114495;23;20512;-80
2021/04/11 06:11:14;;;;;;;52.03;31.90;;;7.70;98.30;;;;;;5123186;23;20494;-80
2021/04/11 06:13:25;;;;;;;46.67;28.70;;;7.70;98.30;;;;;;5114765;23;20467;-79
2021/04/11 06:15:32;;;;;;;47.87;30.30;;;7.70;98.30;;;;;;5114750;23;20967;-79
2021/04/11 06:17:35;;;;;;;50.30;29.90;;;7.70;98.30;;;;;;5114762;23;20425;-79
2021/04/11 06:19:38;;;;;;;50.00;31.57;;;7.80;98.30;;;;;;5114205;23;20765;-79
2021/04/11 06:21:50;;;;;;;53.17;32.40;;;7.80;98.30;;;;;;5115030;23;20466;-79
2021/04/11 06:23:58;;;;;;;72.30;39.97;;;7.80;98.30;;;;;;5114933;23;20462;-79
2021/04/11 06:26:07;;;;;;;51.53;31.50;;;7.80;98.30;;;;;;5115102;23;20433;-79
2021/04/11 06:28:20;;;;;;;46.67;28.23;;;7.90;98.30;;;;;;5122538;23;20424;-79
2021/04/11 06:30:25;;;;;;;43.10;28.77;;;7.90;98.30;;;;;;5113987;23;20425;-79
2021/04/11 06:32:40;;;;;;;45.73;28.37;;;7.80;98.30;;;;;;5115294;23;20446;-79
2021/04/11 06:34:45;;;;;;;50.80;30.40;;;7.90;98.30;;;;;;5114547;23;20460;-79
2021/04/11 06:36:50;;;;;;;47.93;30.93;;;7.90;98.30;;;;;;5114867;23;20541;-79
2021/04/11 06:38:59;;;;;;;51.73;30.97;;;7.90;98.30;;;;;;5114400;23;20420;-79
2021/04/11 06:41:26;;;;;;;55.20;30.60;;;7.90;98.30;;;;;;5114706;23;21235;-79
2021/04/11 06:44:13;;;;;;;50.83;31.17;;;8.00;98.30;;;;;;5123119;23;20780;-78
2021/04/11 06:46:27;;;;;;;48.10;28.67;;;8.00;98.30;;;;;;5114650;23;20454;-78
2021/04/11 06:49:01;;;;;;;42.93;27.63;;;8.00;98.30;;;;;;5114503;23;20425;-79
2021/04/11 06:51:40;;;;;;;53.40;32.47;;;8.10;98.30;;;;;;5089852;23;20532;-78
2021/04/11 06:54:16;;;;;;;47.60;29.27;;;8.10;98.30;;;;;;5114694;23;20434;-79
2021/04/11 06:56:31;;;;;;;46.83;29.00;;;8.00;98.30;;;;;;5114685;23;20420;-79
2021/04/11 06:58:47;;;;;;;43.53;28.20;;;8.10;98.30;;;;;;5114426;23;20503;-79
2021/04/11 07:01:14;;;;;;;45.73;29.80;;;8.10;98.30;;;;;;5114704;23;20460;-79
2021/04/11 07:04:04;;;;;;;51.57;30.53;;;8.10;98.30;;;;;;5114773;23;20477;-79
2021/04/11 07:06:50;;;;;;;48.90;29.50;;;8.00;98.30;;;;;;5113775;23;20491;-79
2021/04/11 07:09:28;;;;;;;47.07;29.00;;;8.10;98.30;;;;;;5124407;23;20431;-79
2021/04/11 07:12:23;;;;;;;45.80;28.07;;;8.00;98.30;;;;;;5118449;23;20487;-79
2021/04/11 07:15:01;;;;;;;45.40;28.60;;;8.10;98.30;;;;;;5122728;23;20450;-79
2021/04/11 07:17:22;;;;;;;42.10;27.90;;;8.10;98.30;;;;;;5121653;23;20935;-79
2021/04/11 07:19:55;;;;;;;42.83;26.83;;;8.10;98.30;;;;;;5113987;23;20446;-79
2021/04/11 07:22:29;;;;;;;47.43;27.97;;;8.00;98.30;;;;;;5114306;23;20420;-79
2021/04/11 07:24:53;;;;;;;44.67;25.60;;;8.10;98.30;;;;;;5113377;23;20427;-78
2021/04/11 07:27:02;;;;;;;42.57;26.07;;;8.10;98.30;;;;;;5095325;23;20453;-79
2021/04/11 07:29:17;;;;;;;44.83;27.87;;;8.20;98.30;;;;;;5121318;23;21104;-79
2021/04/11 07:31:44;;;;;;;43.87;27.73;;;8.20;98.30;;;;;;5114560;23;20773;-79
2021/04/11 07:34:14;;;;;;;39.10;25.57;;;8.20;98.30;;;;;;5053965;23;20544;-79
2021/04/11 07:36:31;;;;;;;44.10;26.83;;;8.20;98.30;;;;;;5114472;23;20450;-79
2021/04/11 07:38:46;;;;;;;43.43;25.90;;;8.30;98.30;;;;;;5114363;23;20428;-79
2021/04/11 07:41:06;;;;;;;47.70;28.37;;;8.30;98.30;;;;;;5114389;23;20955;-79
2021/04/11 07:43:32;;;;;;;46.00;29.10;;;8.40;98.30;;;;;;5114065;23;20523;-78
2021/04/11 07:46:07;;;;;;;43.33;28.10;;;8.40;98.30;;;;;;5109583;23;20803;-79
2021/04/11 07:48:32;;;;;;;47.53;28.77;;;8.50;98.30;;;;;;5084705;23;20428;-79
2021/04/11 07:50:48;;;;;;;51.33;30.40;;;8.40;98.30;;;;;;5109145;23;20515;-79
2021/04/11 07:53:07;;;;;;;57.07;30.90;;;8.40;98.30;;;;;;5114199;23;20594;-79
2021/04/11 07:55:17;;;;;;;50.07;29.90;;;8.50;98.30;;;;;;5113047;23;20432;-79
2021/04/11 07:57:36;;;;;;;50.57;32.20;;;8.50;98.30;;;;;;5114390;23;20442;-78
2021/04/11 08:00:03;;;;;;;55.13;32.30;;;8.40;98.30;;;;;;5113465;23;20435;-78
2021/04/11 08:03:01;;;;;;;50.97;30.53;;;8.50;98.30;;;;;;5122143;23;20453;-79
2021/04/11 08:05:22;;;;;;;55.73;32.67;;;8.50;98.30;;;;;;5014091;23;20457;-79
2021/04/11 08:07:58;;;;;;;51.53;30.20;;;8.50;98.30;;;;;;5101375;23;21068;-78
2021/04/11 08:10:12;;;;;;;52.53;27.97;;;8.70;98.30;;;;;;5113507;23;20449;-78
2021/04/11 08:12:34;;;;;;;54.20;33.07;;;8.70;98.30;;;;;;5114076;23;20456;-79
2021/04/11 08:14:51;;;;;;;53.17;32.40;;;8.70;98.30;;;;;;5114075;23;20509;-78
2021/04/11 08:17:04;;;;;;;59.40;34.80;;;8.80;98.30;;;;;;5113791;23;20428;-77
2021/04/11 08:19:33;;;;;;;55.40;33.00;;;8.80;98.30;;;;;;5113423;23;20452;-77
2021/04/11 08:21:38;;;;;;;56.03;32.33;;;8.90;98.30;;;;;;5113689;23;20445;-76
2021/04/11 08:24:01;;;;;;;57.23;33.77;;;8.80;98.30;;;;;;5115483;23;20507;-78
2021/04/11 08:26:20;;;;;;;55.60;34.07;;;8.80;98.30;;;;;;5115624;23;20428;-77
2021/04/11 08:29:02;;;;;;;59.80;33.60;;;9.00;98.30;;;;;;5115630;23;20946;-77
2021/04/11 08:31:16;;;;;;;55.17;33.57;;;9.00;98.30;;;;;;5087857;23;21047;-78
2021/04/11 08:34:08;;;;;;;53.17;31.67;;;9.00;98.30;;;;;;5115413;23;21241;-78
2021/04/11 08:36:35;;;;;;;48.70;29.77;;;9.10;98.30;;;;;;5116026;23;20426;-77
2021/04/11 08:39:20;;;;;;;59.07;35.30;;;9.20;98.30;;;;;;5115991;23;20966;-77
2021/04/11 08:41:48;;;;;;;57.70;33.20;;;9.20;98.30;;;;;;5015960;23;20443;-79
2021/04/11 08:44:08;;;;;;;49.93;32.67;;;9.30;98.30;;;;;;5087710;23;20457;-77
2021/04/11 08:46:23;;;;;;;54.67;32.37;;;9.40;98.30;;;;;;5115693;23;20442;-77
2021/04/11 08:49:00;;;;;;;55.67;33.07;;;9.40;98.30;;;;;;5115648;23;20524;-78
2021/04/11 08:51:10;;;;;;;57.47;34.33;;;9.50;98.30;;;;;;5096236;23;20457;-77
2021/04/11 08:53:26;;;;;;;54.20;34.00;;;9.60;98.30;;;;;;5115742;23;20424;-77
2021/04/11 08:55:35;;;;;;;56.13;33.57;;;9.70;98.30;;;;;;5123782;23;20420;-77
2021/04/11 08:57:46;;;;;;;58.10;34.00;;;10.00;98.30;;;;;;5115494;23;20492;-77
2021/04/11 08:59:56;;;;;;;53.60;33.40;;;10.00;98.30;;;;;;5115062;23;20449;-80
2021/04/11 09:02:22;;;;;;;51.93;31.77;;;10.20;98.30;;;;;;5115263;23;20445;-77
2021/04/11 09:04:32;;;;;;;49.90;31.90;;;10.30;98.30;;;;;;5115089;23;20487;-79
2021/04/11 09:06:53;;;;;;;49.23;32.40;;;10.30;98.30;;;;;;5114053;23;20457;-78
2021/04/11 09:09:08;;;;;;;45.13;31.07;;;10.40;98.30;;;;;;5114667;23;20525;-78
2021/04/11 09:11:27;;;;;;;47.50;31.33;;;10.40;98.30;;;;;;5116428;23;20449;-77
2021/04/11 09:13:44;;;;;;;44.53;28.60;;;10.30;98.30;;;;;;5122998;23;20511;-78
2021/04/11 09:15:52;;;;;;;45.00;30.20;;;10.20;98.30;;;;;;5114974;23;20460;-78
2021/04/11 09:18:25;;;;;;;47.27;29.30;;;10.20;98.30;;;;;;5122280;23;20430;-79
2021/04/11 09:20:33;;;;;;;41.23;29.13;;;10.20;98.30;;;;;;5101402;23;20427;-78
2021/04/11 09:22:55;;;;;;;40.10;28.37;;;10.20;98.30;;;;;;5115313;23;20504;-78
2021/04/11 09:25:05;;;;;;;42.53;27.70;;;10.10;98.30;;;;;;5115407;23;20445;-78
2021/04/11 09:27:52;;;;;;;41.33;28.27;;;10.10;98.30;;;;;;5115194;23;20494;-78
2021/04/11 09:30:02;;;;;;;43.23;29.07;;;10.10;98.30;;;;;;5113874;23;20463;-78
2021/04/11 09:32:30;;;;;;;41.10;28.43;;;10.20;98.30;;;;;;5114625;23;20458;-77
2021/04/11 09:35:00;;;;;;;40.30;28.37;;;10.20;98.30;;;;;;5114820;23;20565;-77
2021/04/11 09:37:16;;;;;;;38.33;27.20;;;10.20;98.30;;;;;;5114798;23;20934;-77
2021/04/11 09:39:47;;;;;;;33.73;23.43;;;10.20;98.30;;;;;;5114639;23;20453;-78
2021/04/11 09:42:06;;;;;;;34.27;24.13;;;10.30;98.30;;;;;;5114836;23;20458;-78
2021/04/11 09:44:39;;;;;;;32.93;24.47;;;10.40;98.30;;;;;;5115118;23;20457;-78
2021/04/11 09:47:03;;;;;;;29.97;19.23;;;10.40;98.30;;;;;;5114617;23;20460;-78
2021/04/11 09:49:33;;;;;;;30.50;19.70;;;10.40;98.30;;;;;;5114920;23;21199;-78
2021/04/11 09:52:14;;;;;;;26.70;18.93;;;10.50;98.30;;;;;;5114559;23;20800;-78
2021/04/11 09:54:25;;;;;;;21.47;16.87;;;10.60;98.30;;;;;;5115014;23;20458;-78
2021/04/11 09:56:35;;;;;;;20.07;15.53;;;10.70;98.30;;;;;;5115216;23;20834;-78
2021/04/11 09:59:00;;;;;;;20.97;15.90;;;10.70;98.30;;;;;;5115169;23;20453;-77
2021/04/11 10:01:10;;;;;;;16.23;12.90;;;10.70;98.30;;;;;;5114979;23;20458;-77
2021/04/11 10:03:23;;;;;;;19.90;13.97;;;10.70;98.30;;;;;;5114491;23;20460;-78
2021/04/11 10:05:33;;;;;;;16.30;13.00;;;10.70;98.30;;;;;;5115125;23;20457;-77
2021/04/11 10:08:00;;;;;;;16.60;12.53;;;10.70;98.30;;;;;;5115141;23;20747;-78
2021/04/11 10:10:14;;;;;;;14.83;11.17;;;10.70;98.30;;;;;;5098804;23;20956;-78
2021/04/11 10:12:44;;;;;;;16.80;11.93;;;10.70;98.30;;;;;;5123095;23;20445;-78
2021/04/11 10:15:01;;;;;;;14.13;10.43;;;10.60;98.30;;;;;;5114951;23;20504;-78
2021/04/11 10:17:10;;;;;;;13.37;11.67;;;10.60;98.30;;;;;;5114874;23;20610;-77
2021/04/11 10:19:37;;;;;;;14.80;10.87;;;10.50;98.30;;;;;;5114631;23;21243;-78
2021/04/11 10:21:52;;;;;;;17.43;13.37;;;10.50;98.30;;;;;;5115011;23;21268;-77
2021/04/11 10:24:34;;;;;;;19.67;14.37;;;10.20;98.30;;;;;;5115294;23;20450;-77
2021/04/11 10:26:43;;;;;;;17.23;13.63;;;10.10;98.30;;;;;;5015000;23;20542;-78
2021/04/11 10:28:51;;;;;;;18.27;13.40;;;9.90;98.30;;;;;;5072732;23;21018;-78
2021/04/11 10:31:01;;;;;;;13.63;10.30;;;9.90;98.30;;;;;;5115420;23;20427;-77
2021/04/11 10:33:09;;;;;;;16.67;12.63;;;9.90;98.30;;;;;;5114553;23;20428;-77
2021/04/11 10:35:14;;;;;;;17.80;13.93;;;10.10;98.30;;;;;;5115046;23;20787;-76
2021/04/11 10:37:24;;;;;;;14.40;11.10;;;10.20;98.30;;;;;;5115051;23;20429;-77
2021/04/11 10:39:36;;;;;;;13.60;11.20;;;10.40;98.30;;;;;;5114505;23;20458;-78
2021/04/11 10:41:50;;;;;;;12.13;9.97;;;10.50;98.30;;;;;;5114911;23;20428;-77
2021/04/11 10:44:06;;;;;;;13.13;10.53;;;10.50;98.30;;;;;;5123045;23;20456;-77
2021/04/11 10:46:12;;;;;;;14.30;9.87;;;10.40;98.30;;;;;;5114530;23;20457;-77
2021/04/11 10:48:51;;;;;;;12.73;8.93;;;10.30;98.30;;;;;;5114678;23;20457;-76
2021/04/11 10:51:07;;;;;;;8.80;7.90;;;10.30;98.30;;;;;;5114619;23;20453;-77
2021/04/11 10:53:24;;;;;;;9.27;8.03;;;10.30;98.30;;;;;;5114900;23;20445;-77
2021/04/11 10:55:51;;;;;;;9.37;8.30;;;10.10;98.30;;;;;;5113780;23;20928;-77
2021/04/11 10:58:44;;;;;;;9.10;8.17;;;10.10;98.30;;;;;;5122608;23;20456;-77
2021/04/11 11:00:59;;;;;;;8.60;7.30;;;10.10;98.30;;;;;;5114197;23;21097;-77
2021/04/11 11:03:48;;;;;;;9.57;8.07;;;10.00;98.30;;;;;;5114599;23;20457;-77
2021/04/11 11:06:13;;;;;;;9.50;7.87;;;10.00;98.30;;;;;;5113226;23;20450;-77
2021/04/11 11:08:41;;;;;;;9.23;7.57;;;9.80;98.30;;;;;;5113976;23;20498;-77
2021/04/11 11:11:05;;;;;;;10.80;9.00;;;9.60;98.30;;;;;;5113552;23;20453;-76
2021/04/11 11:13:19;;;;;;;10.27;9.10;;;9.40;98.30;;;;;;5114409;23;20450;-77
2021/04/11 11:15:38;;;;;;;12.13;9.70;;;9.30;98.30;;;;;;5122570;23;20532;-77
2021/04/11 11:18:01;;;;;;;12.77;10.23;;;9.30;98.30;;;;;;5114518;23;20452;-77
2021/04/11 11:20:19;;;;;;;15.30;11.07;;;9.20;98.30;;;;;;5113466;23;20505;-77
2021/04/11 11:22:42;;;;;;;14.27;11.57;;;9.10;98.30;;;;;;5114127;23;20424;-77